sensor_id;sensor_type;location;lat;lon;timestamp;P1;durP1;ratioP1;P2;durP2;ratioP2
64938;SDS011;51453;47.738;7.420;2023-04-12T00:00:19;4.75;;;1.60;;
64938;SDS011;51453;47.738;7.420;2023-04-12T00:02:45;2.70;;;1.63;;
64938;SDS011;51453;47.738;7.420;2023-04-12T00:05:11;4.85;;;1.95;;
64938;SDS011;51453;47.738;7.420;2023-04-12T00:07:37;5.15;;;1.60;;
64938;SDS011;51453;47.738;7.420;2023-04-12T00:10:04;6.65;;;1.80;;
64938;SDS011;51453;47.738;7.420;2023-04-12T00:12:31;5.82;;;1.90;;
64938;SDS011;51453;47.738;7.420;2023-04-12T00:14:57;3.70;;;1.95;;
64938;SDS011;51453;47.738;7.420;2023-04-12T00:17:23;8.07;;;1.70;;
64938;SDS011;51453;47.738;7.420;2023-04-12T00:19:48;9.60;;;2.28;;
64938;SDS011;51453;47.738;7.420;2023-04-12T00:22:14;2.70;;;1.80;;
64938;SDS011;51453;47.738;7.420;2023-04-12T00:24:40;6.10;;;1.92;;
64938;SDS011;51453;47.738;7.420;2023-04-12T00:27:06;8.88;;;1.88;;
64938;SDS011;51453;47.738;7.420;2023-04-12T00:29:32;5.10;;;2.08;;
64938;SDS011;51453;47.738;7.420;2023-04-12T00:31:58;7.43;;;2.20;;
64938;SDS011;51453;47.738;7.420;2023-04-12T00:34:26;5.72;;;2.03;;
64938;SDS011;51453;47.738;7.420;2023-04-12T00:36:52;4.45;;;1.98;;
64938;SDS011;51453;47.738;7.420;2023-04-12T00:39:18;8.77;;;2.03;;
64938;SDS011;51453;47.738;7.420;2023-04-12T00:41:44;8.45;;;2.20;;
64938;SDS011;51453;47.738;7.420;2023-04-12T00:44:09;6.22;;;1.90;;
64938;SDS011;51453;47.738;7.420;2023-04-12T00:46:35;6.45;;;2.40;;
64938;SDS011;51453;47.738;7.420;2023-04-12T00:49:02;8.20;;;2.85;;
64938;SDS011;51453;47.738;7.420;2023-04-12T00:51:27;6.43;;;2.40;;
64938;SDS011;51453;47.738;7.420;2023-04-12T00:53:57;4.78;;;2.45;;
64938;SDS011;51453;47.738;7.420;2023-04-12T00:56:25;7.30;;;2.83;;
64938;SDS011;51453;47.738;7.420;2023-04-12T00:58:52;6.57;;;2.08;;
64938;SDS011;51453;47.738;7.420;2023-04-12T01:01:18;5.00;;;2.10;;
64938;SDS011;51453;47.738;7.420;2023-04-12T01:03:45;5.28;;;2.40;;
64938;SDS011;51453;47.738;7.420;2023-04-12T01:06:13;5.55;;;2.50;;
64938;SDS011;51453;47.738;7.420;2023-04-12T01:09:02;5.63;;;2.25;;
64938;SDS011;51453;47.738;7.420;2023-04-12T01:11:45;4.80;;;1.83;;
64938;SDS011;51453;47.738;7.420;2023-04-12T01:14:52;6.10;;;2.20;;
64938;SDS011;51453;47.738;7.420;2023-04-12T01:17:29;8.23;;;2.38;;
64938;SDS011;51453;47.738;7.420;2023-04-12T01:28:14;7.95;;;2.58;;
64938;SDS011;51453;47.738;7.420;2023-04-12T01:30:45;6.82;;;2.47;;
64938;SDS011;51453;47.738;7.420;2023-04-12T01:33:12;8.88;;;2.75;;
64938;SDS011;51453;47.738;7.420;2023-04-12T01:35:40;5.82;;;2.65;;
64938;SDS011;51453;47.738;7.420;2023-04-12T01:38:06;7.20;;;2.67;;
64938;SDS011;51453;47.738;7.420;2023-04-12T01:40:34;11.27;;;2.78;;
64938;SDS011;51453;47.738;7.420;2023-04-12T01:43:03;6.95;;;2.90;;
64938;SDS011;51453;47.738;7.420;2023-04-12T01:45:30;6.72;;;3.00;;
64938;SDS011;51453;47.738;7.420;2023-04-12T01:47:56;5.60;;;2.92;;
64938;SDS011;51453;47.738;7.420;2023-04-12T01:50:24;8.65;;;3.38;;
64938;SDS011;51453;47.738;7.420;2023-04-12T01:53:02;6.72;;;3.20;;
64938;SDS011;51453;47.738;7.420;2023-04-12T01:55:48;6.10;;;2.67;;
64938;SDS011;51453;47.738;7.420;2023-04-12T01:58:16;10.88;;;3.30;;
64938;SDS011;51453;47.738;7.420;2023-04-12T02:00:45;9.82;;;3.55;;
64938;SDS011;51453;47.738;7.420;2023-04-12T02:03:11;10.35;;;3.70;;
64938;SDS011;51453;47.738;7.420;2023-04-12T02:05:37;4.97;;;2.83;;
64938;SDS011;51453;47.738;7.420;2023-04-12T02:08:03;6.18;;;2.88;;
64938;SDS011;51453;47.738;7.420;2023-04-12T02:10:30;7.65;;;3.00;;
64938;SDS011;51453;47.738;7.420;2023-04-12T02:12:57;6.88;;;3.35;;
64938;SDS011;51453;47.738;7.420;2023-04-12T02:15:26;8.45;;;3.17;;
64938;SDS011;51453;47.738;7.420;2023-04-12T02:17:53;9.57;;;2.95;;
64938;SDS011;51453;47.738;7.420;2023-04-12T02:20:19;5.53;;;2.65;;
64938;SDS011;51453;47.738;7.420;2023-04-12T02:22:46;5.65;;;2.80;;
64938;SDS011;51453;47.738;7.420;2023-04-12T02:25:11;6.03;;;2.70;;
64938;SDS011;51453;47.738;7.420;2023-04-12T02:27:37;9.43;;;2.75;;
64938;SDS011;51453;47.738;7.420;2023-04-12T02:30:03;7.20;;;3.00;;
64938;SDS011;51453;47.738;7.420;2023-04-12T02:32:29;7.03;;;2.72;;
64938;SDS011;51453;47.738;7.420;2023-04-12T02:34:55;6.63;;;2.88;;
64938;SDS011;51453;47.738;7.420;2023-04-12T02:37:25;8.98;;;3.30;;
64938;SDS011;51453;47.738;7.420;2023-04-12T02:39:52;5.93;;;2.83;;
64938;SDS011;51453;47.738;7.420;2023-04-12T02:42:21;6.78;;;2.83;;
64938;SDS011;51453;47.738;7.420;2023-04-12T02:44:46;6.28;;;2.90;;
64938;SDS011;51453;47.738;7.420;2023-04-12T02:47:12;8.23;;;3.00;;
64938;SDS011;51453;47.738;7.420;2023-04-12T02:49:38;6.72;;;3.00;;
64938;SDS011;51453;47.738;7.420;2023-04-12T02:52:04;5.38;;;3.00;;
64938;SDS011;51453;47.738;7.420;2023-04-12T02:54:30;8.27;;;2.90;;
64938;SDS011;51453;47.738;7.420;2023-04-12T02:56:55;7.63;;;2.83;;
64938;SDS011;51453;47.738;7.420;2023-04-12T02:59:21;7.55;;;2.80;;
64938;SDS011;51453;47.738;7.420;2023-04-12T03:01:47;5.93;;;2.40;;
64938;SDS011;51453;47.738;7.420;2023-04-12T03:04:14;7.60;;;3.00;;
64938;SDS011;51453;47.738;7.420;2023-04-12T03:06:40;6.32;;;2.83;;
64938;SDS011;51453;47.738;7.420;2023-04-12T03:09:16;8.02;;;3.08;;
64938;SDS011;51453;47.738;7.420;2023-04-12T03:11:42;8.70;;;3.00;;
64938;SDS011;51453;47.738;7.420;2023-04-12T03:14:09;8.45;;;3.00;;
64938;SDS011;51453;47.738;7.420;2023-04-12T03:16:34;7.93;;;3.15;;
64938;SDS011;51453;47.738;7.420;2023-04-12T03:19:00;6.72;;;2.97;;
64938;SDS011;51453;47.738;7.420;2023-04-12T03:21:27;8.82;;;3.70;;
64938;SDS011;51453;47.738;7.420;2023-04-12T03:23:53;12.00;;;3.20;;
64938;SDS011;51453;47.738;7.420;2023-04-12T03:26:18;9.20;;;3.50;;
64938;SDS011;51453;47.738;7.420;2023-04-12T03:28:47;8.93;;;3.70;;
64938;SDS011;51453;47.738;7.420;2023-04-12T03:31:13;6.78;;;3.55;;
64938;SDS011;51453;47.738;7.420;2023-04-12T03:33:39;5.75;;;3.33;;
64938;SDS011;51453;47.738;7.420;2023-04-12T03:36:05;7.32;;;3.72;;
64938;SDS011;51453;47.738;7.420;2023-04-12T03:38:31;10.65;;;4.40;;
64938;SDS011;51453;47.738;7.420;2023-04-12T03:40:57;7.32;;;4.47;;
64938;SDS011;51453;47.738;7.420;2023-04-12T03:43:22;8.40;;;4.75;;
64938;SDS011;51453;47.738;7.420;2023-04-12T03:45:48;11.13;;;4.28;;
64938;SDS011;51453;47.738;7.420;2023-04-12T03:48:13;14.40;;;5.30;;
64938;SDS011;51453;47.738;7.420;2023-04-12T03:50:40;9.43;;;5.20;;
64938;SDS011;51453;47.738;7.420;2023-04-12T03:53:09;11.20;;;5.25;;
64938;SDS011;51453;47.738;7.420;2023-04-12T03:55:35;9.88;;;5.07;;
64938;SDS011;51453;47.738;7.420;2023-04-12T03:58:04;12.02;;;5.57;;
64938;SDS011;51453;47.738;7.420;2023-04-12T04:00:30;10.00;;;5.32;;
64938;SDS011;51453;47.738;7.420;2023-04-12T04:02:56;7.65;;;5.22;;
64938;SDS011;51453;47.738;7.420;2023-04-12T04:05:27;10.90;;;5.60;;
64938;SDS011;51453;47.738;7.420;2023-04-12T04:07:54;8.77;;;5.57;;
64938;SDS011;51453;47.738;7.420;2023-04-12T04:10:20;13.68;;;5.78;;
64938;SDS011;51453;47.738;7.420;2023-04-12T04:12:46;15.07;;;5.90;;
64938;SDS011;51453;47.738;7.420;2023-04-12T04:15:13;13.13;;;6.45;;
64938;SDS011;51453;47.738;7.420;2023-04-12T04:17:39;12.95;;;6.45;;
64938;SDS011;51453;47.738;7.420;2023-04-12T04:20:05;11.40;;;6.50;;
64938;SDS011;51453;47.738;7.420;2023-04-12T04:22:32;12.43;;;6.72;;
64938;SDS011;51453;47.738;7.420;2023-04-12T04:24:58;13.52;;;5.93;;
64938;SDS011;51453;47.738;7.420;2023-04-12T04:27:25;14.45;;;6.22;;
64938;SDS011;51453;47.738;7.420;2023-04-12T04:29:54;10.07;;;5.47;;
64938;SDS011;51453;47.738;7.420;2023-04-12T04:32:23;12.75;;;5.95;;
64938;SDS011;51453;47.738;7.420;2023-04-12T04:34:49;12.70;;;5.93;;
64938;SDS011;51453;47.738;7.420;2023-04-12T04:37:15;10.18;;;6.15;;
64938;SDS011;51453;47.738;7.420;2023-04-12T04:39:42;13.10;;;7.20;;
64938;SDS011;51453;47.738;7.420;2023-04-12T04:42:08;12.77;;;7.15;;
64938;SDS011;51453;47.738;7.420;2023-04-12T04:44:35;16.40;;;6.95;;
64938;SDS011;51453;47.738;7.420;2023-04-12T04:47:01;11.77;;;7.20;;
64938;SDS011;51453;47.738;7.420;2023-04-12T04:49:27;16.77;;;7.78;;
64938;SDS011;51453;47.738;7.420;2023-04-12T04:51:53;14.45;;;7.57;;
64938;SDS011;51453;47.738;7.420;2023-04-12T04:54:18;12.80;;;7.03;;
64938;SDS011;51453;47.738;7.420;2023-04-12T04:56:44;12.95;;;7.00;;
64938;SDS011;51453;47.738;7.420;2023-04-12T04:59:10;13.75;;;7.68;;
64938;SDS011;51453;47.738;7.420;2023-04-12T05:01:35;14.20;;;7.80;;
64938;SDS011;51453;47.738;7.420;2023-04-12T05:04:01;15.20;;;7.97;;
64938;SDS011;51453;47.738;7.420;2023-04-12T05:06:27;16.50;;;8.38;;
64938;SDS011;51453;47.738;7.420;2023-04-12T05:08:53;14.68;;;7.95;;
64938;SDS011;51453;47.738;7.420;2023-04-12T05:11:18;15.48;;;7.82;;
64938;SDS011;51453;47.738;7.420;2023-04-12T05:13:44;14.05;;;8.10;;
64938;SDS011;51453;47.738;7.420;2023-04-12T05:16:10;14.95;;;7.95;;
64938;SDS011;51453;47.738;7.420;2023-04-12T05:18:36;13.45;;;7.57;;
64938;SDS011;51453;47.738;7.420;2023-04-12T05:21:02;11.18;;;8.18;;
64938;SDS011;51453;47.738;7.420;2023-04-12T05:23:29;12.63;;;7.47;;
64938;SDS011;51453;47.738;7.420;2023-04-12T05:26:00;13.77;;;7.72;;
64938;SDS011;51453;47.738;7.420;2023-04-12T05:28:25;13.05;;;7.45;;
64938;SDS011;51453;47.738;7.420;2023-04-12T05:30:51;13.10;;;7.97;;
64938;SDS011;51453;47.738;7.420;2023-04-12T05:33:16;12.75;;;7.43;;
64938;SDS011;51453;47.738;7.420;2023-04-12T05:35:42;12.27;;;7.53;;
64938;SDS011;51453;47.738;7.420;2023-04-12T05:38:08;12.45;;;8.02;;
64938;SDS011;51453;47.738;7.420;2023-04-12T05:40:33;14.63;;;8.50;;
64938;SDS011;51453;47.738;7.420;2023-04-12T05:43:00;14.88;;;8.65;;
64938;SDS011;51453;47.738;7.420;2023-04-12T05:45:26;15.57;;;8.98;;
64938;SDS011;51453;47.738;7.420;2023-04-12T05:47:52;12.93;;;8.20;;
64938;SDS011;51453;47.738;7.420;2023-04-12T05:50:19;16.27;;;9.32;;
64938;SDS011;51453;47.738;7.420;2023-04-12T05:52:45;12.32;;;8.18;;
64938;SDS011;51453;47.738;7.420;2023-04-12T05:55:14;14.18;;;7.60;;
64938;SDS011;51453;47.738;7.420;2023-04-12T05:57:43;14.07;;;8.35;;
64938;SDS011;51453;47.738;7.420;2023-04-12T06:00:09;8.85;;;6.55;;
64938;SDS011;51453;47.738;7.420;2023-04-12T06:02:41;12.23;;;7.32;;
64938;SDS011;51453;47.738;7.420;2023-04-12T06:05:08;10.50;;;7.32;;
64938;SDS011;51453;47.738;7.420;2023-04-12T06:07:35;12.50;;;6.97;;
64938;SDS011;51453;47.738;7.420;2023-04-12T06:10:03;11.15;;;7.60;;
64938;SDS011;51453;47.738;7.420;2023-04-12T06:12:29;12.00;;;8.15;;
64938;SDS011;51453;47.738;7.420;2023-04-12T06:14:55;11.65;;;7.38;;
64938;SDS011;51453;47.738;7.420;2023-04-12T06:17:21;11.63;;;7.40;;
64938;SDS011;51453;47.738;7.420;2023-04-12T06:19:46;11.75;;;7.53;;
64938;SDS011;51453;47.738;7.420;2023-04-12T06:22:12;11.93;;;6.80;;
64938;SDS011;51453;47.738;7.420;2023-04-12T06:24:38;13.90;;;7.75;;
64938;SDS011;51453;47.738;7.420;2023-04-12T06:27:04;12.25;;;6.68;;
64938;SDS011;51453;47.738;7.420;2023-04-12T06:29:30;84.30;;;13.15;;
64938;SDS011;51453;47.738;7.420;2023-04-12T06:31:55;11.05;;;6.93;;
64938;SDS011;51453;47.738;7.420;2023-04-12T06:34:21;12.65;;;6.38;;
64938;SDS011;51453;47.738;7.420;2023-04-12T06:36:46;144.82;;;18.23;;
64938;SDS011;51453;47.738;7.420;2023-04-12T06:39:12;31.08;;;8.38;;
64938;SDS011;51453;47.738;7.420;2023-04-12T06:41:40;10.27;;;6.40;;
64938;SDS011;51453;47.738;7.420;2023-04-12T06:44:07;8.07;;;6.28;;
64938;SDS011;51453;47.738;7.420;2023-04-12T06:46:33;13.43;;;6.30;;
64938;SDS011;51453;47.738;7.420;2023-04-12T06:48:59;6.88;;;5.38;;
64938;SDS011;51453;47.738;7.420;2023-04-12T06:51:25;11.35;;;5.53;;
64938;SDS011;51453;47.738;7.420;2023-04-12T06:53:52;7.88;;;4.93;;
64938;SDS011;51453;47.738;7.420;2023-04-12T06:56:18;8.05;;;5.57;;
64938;SDS011;51453;47.738;7.420;2023-04-12T06:58:43;6.65;;;5.43;;
64938;SDS011;51453;47.738;7.420;2023-04-12T07:01:09;7.25;;;5.43;;
64938;SDS011;51453;47.738;7.420;2023-04-12T07:03:35;8.85;;;4.97;;
64938;SDS011;51453;47.738;7.420;2023-04-12T07:06:01;7.93;;;4.95;;
64938;SDS011;51453;47.738;7.420;2023-04-12T07:08:28;9.38;;;4.90;;
64938;SDS011;51453;47.738;7.420;2023-04-12T07:10:54;10.80;;;4.88;;
64938;SDS011;51453;47.738;7.420;2023-04-12T07:13:20;31.52;;;6.35;;
64938;SDS011;51453;47.738;7.420;2023-04-12T07:15:47;70.93;;;10.13;;
64938;SDS011;51453;47.738;7.420;2023-04-12T07:18:13;13.02;;;5.40;;
64938;SDS011;51453;47.738;7.420;2023-04-12T07:20:39;8.88;;;4.88;;
64938;SDS011;51453;47.738;7.420;2023-04-12T07:23:04;9.80;;;4.90;;
64938;SDS011;51453;47.738;7.420;2023-04-12T07:25:30;12.20;;;5.55;;
64938;SDS011;51453;47.738;7.420;2023-04-12T07:27:56;25.92;;;7.22;;
64938;SDS011;51453;47.738;7.420;2023-04-12T07:30:21;64.18;;;10.05;;
64938;SDS011;51453;47.738;7.420;2023-04-12T07:32:47;16.83;;;5.10;;
64938;SDS011;51453;47.738;7.420;2023-04-12T07:35:13;72.28;;;8.90;;
64938;SDS011;51453;47.738;7.420;2023-04-12T07:37:39;14.68;;;4.65;;
64938;SDS011;51453;47.738;7.420;2023-04-12T07:40:05;9.38;;;4.40;;
64938;SDS011;51453;47.738;7.420;2023-04-12T07:42:31;11.10;;;4.00;;
64938;SDS011;51453;47.738;7.420;2023-04-12T07:44:57;8.52;;;3.60;;
64938;SDS011;51453;47.738;7.420;2023-04-12T07:47:22;5.55;;;3.58;;
64938;SDS011;51453;47.738;7.420;2023-04-12T07:49:48;5.70;;;3.63;;
64938;SDS011;51453;47.738;7.420;2023-04-12T07:52:14;6.88;;;3.72;;
64938;SDS011;51453;47.738;7.420;2023-04-12T07:54:39;91.40;;;9.57;;
64938;SDS011;51453;47.738;7.420;2023-04-12T07:57:06;38.78;;;5.25;;
64938;SDS011;51453;47.738;7.420;2023-04-12T07:59:33;5.55;;;3.22;;
64938;SDS011;51453;47.738;7.420;2023-04-12T08:01:59;8.52;;;2.88;;
64938;SDS011;51453;47.738;7.420;2023-04-12T08:04:25;5.45;;;2.88;;
64938;SDS011;51453;47.738;7.420;2023-04-12T08:06:54;4.82;;;3.00;;
64938;SDS011;51453;47.738;7.420;2023-04-12T08:09:19;3.83;;;2.65;;
64938;SDS011;51453;47.738;7.420;2023-04-12T08:11:46;5.72;;;2.70;;
64938;SDS011;51453;47.738;7.420;2023-04-12T08:14:11;4.43;;;2.90;;
64938;SDS011;51453;47.738;7.420;2023-04-12T08:16:37;6.95;;;3.05;;
64938;SDS011;51453;47.738;7.420;2023-04-12T08:19:03;6.78;;;3.13;;
64938;SDS011;51453;47.738;7.420;2023-04-12T08:21:29;6.38;;;3.58;;
64938;SDS011;51453;47.738;7.420;2023-04-12T08:23:54;8.38;;;4.30;;
64938;SDS011;51453;47.738;7.420;2023-04-12T08:26:20;6.25;;;3.75;;
64938;SDS011;51453;47.738;7.420;2023-04-12T08:28:46;8.65;;;3.45;;
64938;SDS011;51453;47.738;7.420;2023-04-12T08:31:13;5.25;;;2.80;;
64938;SDS011;51453;47.738;7.420;2023-04-12T08:33:39;6.82;;;3.00;;
64938;SDS011;51453;47.738;7.420;2023-04-12T08:36:05;12.30;;;3.30;;
64938;SDS011;51453;47.738;7.420;2023-04-12T08:38:31;7.82;;;2.80;;
64938;SDS011;51453;47.738;7.420;2023-04-12T08:40:57;6.88;;;2.70;;
64938;SDS011;51453;47.738;7.420;2023-04-12T08:43:24;6.72;;;2.13;;
64938;SDS011;51453;47.738;7.420;2023-04-12T08:45:53;6.80;;;3.08;;
64938;SDS011;51453;47.738;7.420;2023-04-12T08:48:20;4.57;;;2.35;;
64938;SDS011;51453;47.738;7.420;2023-04-12T08:50:46;6.10;;;2.80;;
64938;SDS011;51453;47.738;7.420;2023-04-12T08:53:13;6.00;;;2.60;;
64938;SDS011;51453;47.738;7.420;2023-04-12T08:55:42;6.15;;;2.40;;
64938;SDS011;51453;47.738;7.420;2023-04-12T08:58:09;5.78;;;2.58;;
64938;SDS011;51453;47.738;7.420;2023-04-12T09:00:40;10.82;;;2.58;;
64938;SDS011;51453;47.738;7.420;2023-04-12T09:03:06;6.45;;;2.55;;
64938;SDS011;51453;47.738;7.420;2023-04-12T09:05:34;7.45;;;2.70;;
64938;SDS011;51453;47.738;7.420;2023-04-12T09:08:00;3.75;;;2.33;;
64938;SDS011;51453;47.738;7.420;2023-04-12T09:10:33;6.00;;;2.83;;
64938;SDS011;51453;47.738;7.420;2023-04-12T09:13:01;5.72;;;2.58;;
64938;SDS011;51453;47.738;7.420;2023-04-12T09:15:28;6.07;;;2.67;;
64938;SDS011;51453;47.738;7.420;2023-04-12T09:20:36;4.45;;;2.10;;
64938;SDS011;51453;47.738;7.420;2023-04-12T09:23:21;8.77;;;2.63;;
64938;SDS011;51453;47.738;7.420;2023-04-12T09:25:50;4.70;;;2.90;;
64938;SDS011;51453;47.738;7.420;2023-04-12T09:28:24;5.78;;;2.50;;
64938;SDS011;51453;47.738;7.420;2023-04-12T09:30:51;6.60;;;2.80;;
64938;SDS011;51453;47.738;7.420;2023-04-12T09:33:18;5.75;;;2.40;;
64938;SDS011;51453;47.738;7.420;2023-04-12T09:35:45;7.72;;;2.30;;
64938;SDS011;51453;47.738;7.420;2023-04-12T09:38:11;8.20;;;2.22;;
64938;SDS011;51453;47.738;7.420;2023-04-12T09:40:37;5.55;;;2.08;;
64938;SDS011;51453;47.738;7.420;2023-04-12T09:43:03;5.40;;;2.28;;
64938;SDS011;51453;47.738;7.420;2023-04-12T09:45:32;7.00;;;2.13;;
64938;SDS011;51453;47.738;7.420;2023-04-12T09:47:59;3.42;;;1.80;;
64938;SDS011;51453;47.738;7.420;2023-04-12T09:50:25;6.85;;;2.00;;
64938;SDS011;51453;47.738;7.420;2023-04-12T09:52:53;7.80;;;2.30;;
64938;SDS011;51453;47.738;7.420;2023-04-12T09:55:20;4.65;;;1.85;;
64938;SDS011;51453;47.738;7.420;2023-04-12T09:57:50;8.80;;;2.20;;
64938;SDS011;51453;47.738;7.420;2023-04-12T10:00:16;5.85;;;2.15;;
64938;SDS011;51453;47.738;7.420;2023-04-12T10:02:44;6.28;;;2.17;;
64938;SDS011;51453;47.738;7.420;2023-04-12T10:05:12;4.90;;;2.25;;
64938;SDS011;51453;47.738;7.420;2023-04-12T10:07:40;6.22;;;2.28;;
64938;SDS011;51453;47.738;7.420;2023-04-12T10:10:06;5.97;;;1.98;;
64938;SDS011;51453;47.738;7.420;2023-04-12T10:12:37;4.85;;;1.98;;
64938;SDS011;51453;47.738;7.420;2023-04-12T10:15:04;4.82;;;1.90;;
64938;SDS011;51453;47.738;7.420;2023-04-12T10:20:14;5.57;;;2.22;;
64938;SDS011;51453;47.738;7.420;2023-04-12T10:22:42;4.03;;;1.65;;
64938;SDS011;51453;47.738;7.420;2023-04-12T10:25:12;4.88;;;1.98;;
64938;SDS011;51453;47.738;7.420;2023-04-12T10:27:39;2.73;;;1.73;;
64938;SDS011;51453;47.738;7.420;2023-04-12T10:33:13;7.45;;;2.25;;
64938;SDS011;51453;47.738;7.420;2023-04-12T10:38:14;4.55;;;1.55;;
64938;SDS011;51453;47.738;7.420;2023-04-12T10:43:31;4.15;;;1.60;;
64938;SDS011;51453;47.738;7.420;2023-04-12T10:45:56;3.17;;;1.67;;
64938;SDS011;51453;47.738;7.420;2023-04-12T10:48:31;5.88;;;2.28;;
64938;SDS011;51453;47.738;7.420;2023-04-12T10:51:20;4.25;;;1.42;;
64938;SDS011;51453;47.738;7.420;2023-04-12T10:53:52;6.32;;;1.40;;
64938;SDS011;51453;47.738;7.420;2023-04-12T10:56:38;5.95;;;1.73;;
64938;SDS011;51453;47.738;7.420;2023-04-12T10:59:06;6.03;;;1.67;;
64938;SDS011;51453;47.738;7.420;2023-04-12T11:01:32;3.70;;;1.50;;
64938;SDS011;51453;47.738;7.420;2023-04-12T11:06:41;3.13;;;1.50;;
64938;SDS011;51453;47.738;7.420;2023-04-12T11:09:45;4.70;;;1.63;;
64938;SDS011;51453;47.738;7.420;2023-04-12T11:12:12;3.83;;;1.45;;
64938;SDS011;51453;47.738;7.420;2023-04-12T11:14:43;3.97;;;1.40;;
64938;SDS011;51453;47.738;7.420;2023-04-12T11:19:44;3.58;;;1.25;;
64938;SDS011;51453;47.738;7.420;2023-04-12T11:22:29;2.70;;;1.30;;
64938;SDS011;51453;47.738;7.420;2023-04-12T11:24:57;2.97;;;1.40;;
64938;SDS011;51453;47.738;7.420;2023-04-12T11:27:26;4.47;;;1.17;;
64938;SDS011;51453;47.738;7.420;2023-04-12T11:29:53;4.15;;;1.45;;
64938;SDS011;51453;47.738;7.420;2023-04-12T11:32:24;3.85;;;1.20;;
64938;SDS011;51453;47.738;7.420;2023-04-12T11:34:52;3.42;;;1.60;;
64938;SDS011;51453;47.738;7.420;2023-04-12T11:37:19;4.18;;;1.38;;
64938;SDS011;51453;47.738;7.420;2023-04-12T11:39:46;3.50;;;1.00;;
64938;SDS011;51453;47.738;7.420;2023-04-12T11:44:40;3.40;;;1.25;;
64938;SDS011;51453;47.738;7.420;2023-04-12T11:47:41;2.92;;;0.90;;
64938;SDS011;51453;47.738;7.420;2023-04-12T11:49:59;1.75;;;0.80;;
64938;SDS011;51453;47.738;7.420;2023-04-12T11:52:29;3.20;;;1.27;;
64938;SDS011;51453;47.738;7.420;2023-04-12T11:54:55;1.42;;;0.93;;
64938;SDS011;51453;47.738;7.420;2023-04-12T11:57:30;1.60;;;0.80;;
64938;SDS011;51453;47.738;7.420;2023-04-12T11:59:57;3.42;;;1.00;;
64938;SDS011;51453;47.738;7.420;2023-04-12T12:02:24;1.95;;;1.00;;
64938;SDS011;51453;47.738;7.420;2023-04-12T12:04:50;1.30;;;0.90;;
64938;SDS011;51453;47.738;7.420;2023-04-12T12:07:16;2.70;;;1.33;;
64938;SDS011;51453;47.738;7.420;2023-04-12T12:09:43;4.57;;;1.20;;
64938;SDS011;51453;47.738;7.420;2023-04-12T12:12:10;1.52;;;0.95;;
64938;SDS011;51453;47.738;7.420;2023-04-12T12:14:36;1.95;;;0.80;;
64938;SDS011;51453;47.738;7.420;2023-04-12T12:17:08;1.23;;;0.93;;
64938;SDS011;51453;47.738;7.420;2023-04-12T12:19:38;2.78;;;1.40;;
64938;SDS011;51453;47.738;7.420;2023-04-12T12:24:34;4.25;;;2.78;;
64938;SDS011;51453;47.738;7.420;2023-04-12T12:27:01;1.48;;;0.82;;
64938;SDS011;51453;47.738;7.420;2023-04-12T12:29:33;4.45;;;1.90;;
64938;SDS011;51453;47.738;7.420;2023-04-12T12:32:08;1.40;;;1.30;;
64938;SDS011;51453;47.738;7.420;2023-04-12T12:34:35;1.35;;;0.55;;
64938;SDS011;51453;47.738;7.420;2023-04-12T12:37:01;1.70;;;0.70;;
64938;SDS011;51453;47.738;7.420;2023-04-12T12:39:26;1.65;;;0.98;;
64938;SDS011;51453;47.738;7.420;2023-04-12T12:41:53;1.23;;;1.13;;
64938;SDS011;51453;47.738;7.420;2023-04-12T12:44:23;1.77;;;0.90;;
64938;SDS011;51453;47.738;7.420;2023-04-12T12:46:48;1.73;;;0.50;;
64938;SDS011;51453;47.738;7.420;2023-04-12T12:49:14;1.48;;;1.00;;
64938;SDS011;51453;47.738;7.420;2023-04-12T12:51:40;1.52;;;0.60;;
64938;SDS011;51453;47.738;7.420;2023-04-12T12:54:06;1.27;;;0.50;;
64938;SDS011;51453;47.738;7.420;2023-04-12T12:56:32;1.60;;;0.60;;
64938;SDS011;51453;47.738;7.420;2023-04-12T12:58:59;1.58;;;0.68;;
64938;SDS011;51453;47.738;7.420;2023-04-12T13:01:25;2.35;;;0.47;;
64938;SDS011;51453;47.738;7.420;2023-04-12T13:03:54;2.70;;;0.70;;
64938;SDS011;51453;47.738;7.420;2023-04-12T13:06:20;1.45;;;0.70;;
64938;SDS011;51453;47.738;7.420;2023-04-12T13:08:46;1.98;;;0.30;;
64938;SDS011;51453;47.738;7.420;2023-04-12T13:11:11;1.95;;;0.70;;
64938;SDS011;51453;47.738;7.420;2023-04-12T13:13:37;0.88;;;0.50;;
64938;SDS011;51453;47.738;7.420;2023-04-12T13:16:03;0.75;;;0.65;;
64938;SDS011;51453;47.738;7.420;2023-04-12T13:18:29;1.08;;;0.40;;
64938;SDS011;51453;47.738;7.420;2023-04-12T13:20:54;0.93;;;0.40;;
64938;SDS011;51453;47.738;7.420;2023-04-12T13:23:20;4.93;;;0.70;;
64938;SDS011;51453;47.738;7.420;2023-04-12T13:25:46;2.13;;;0.55;;
64938;SDS011;51453;47.738;7.420;2023-04-12T13:28:11;0.77;;;0.50;;
64938;SDS011;51453;47.738;7.420;2023-04-12T13:30:37;1.05;;;0.30;;
64938;SDS011;51453;47.738;7.420;2023-04-12T13:33:03;1.75;;;0.40;;
64938;SDS011;51453;47.738;7.420;2023-04-12T13:35:28;0.75;;;0.40;;
64938;SDS011;51453;47.738;7.420;2023-04-12T13:37:55;1.17;;;0.38;;
64938;SDS011;51453;47.738;7.420;2023-04-12T13:40:21;0.88;;;0.30;;
64938;SDS011;51453;47.738;7.420;2023-04-12T13:42:47;1.15;;;0.50;;
64938;SDS011;51453;47.738;7.420;2023-04-12T13:45:12;1.55;;;0.35;;
64938;SDS011;51453;47.738;7.420;2023-04-12T13:47:38;1.50;;;0.38;;
64938;SDS011;51453;47.738;7.420;2023-04-12T13:50:04;1.45;;;0.50;;
64938;SDS011;51453;47.738;7.420;2023-04-12T13:52:30;1.67;;;0.40;;
64938;SDS011;51453;47.738;7.420;2023-04-12T13:54:55;1.58;;;0.50;;
64938;SDS011;51453;47.738;7.420;2023-04-12T13:57:21;2.38;;;0.63;;
64938;SDS011;51453;47.738;7.420;2023-04-12T13:59:47;0.75;;;0.35;;
64938;SDS011;51453;47.738;7.420;2023-04-12T14:02:13;0.85;;;0.35;;
64938;SDS011;51453;47.738;7.420;2023-04-12T14:04:48;1.10;;;0.50;;
64938;SDS011;51453;47.738;7.420;2023-04-12T14:07:15;1.17;;;0.52;;
64938;SDS011;51453;47.738;7.420;2023-04-12T14:09:41;1.15;;;0.50;;
64938;SDS011;51453;47.738;7.420;2023-04-12T14:12:07;0.57;;;0.50;;
64938;SDS011;51453;47.738;7.420;2023-04-12T14:14:33;1.98;;;0.40;;
64938;SDS011;51453;47.738;7.420;2023-04-12T14:16:58;2.22;;;0.50;;
64938;SDS011;51453;47.738;7.420;2023-04-12T14:19:25;1.48;;;0.63;;
64938;SDS011;51453;47.738;7.420;2023-04-12T14:21:51;4.30;;;0.65;;
64938;SDS011;51453;47.738;7.420;2023-04-12T14:24:18;1.00;;;0.50;;
64938;SDS011;51453;47.738;7.420;2023-04-12T14:26:44;0.63;;;0.40;;
64938;SDS011;51453;47.738;7.420;2023-04-12T14:29:10;0.50;;;0.25;;
64938;SDS011;51453;47.738;7.420;2023-04-12T14:31:37;0.98;;;0.38;;
64938;SDS011;51453;47.738;7.420;2023-04-12T14:34:03;0.57;;;0.40;;
64938;SDS011;51453;47.738;7.420;2023-04-12T14:36:29;0.60;;;0.40;;
64938;SDS011;51453;47.738;7.420;2023-04-12T14:38:56;0.45;;;0.30;;
64938;SDS011;51453;47.738;7.420;2023-04-12T14:41:21;0.57;;;0.20;;
64938;SDS011;51453;47.738;7.420;2023-04-12T14:43:47;0.60;;;0.30;;
64938;SDS011;51453;47.738;7.420;2023-04-12T14:46:15;2.13;;;0.30;;
64938;SDS011;51453;47.738;7.420;2023-04-12T14:48:41;1.20;;;0.20;;
64938;SDS011;51453;47.738;7.420;2023-04-12T14:51:06;0.82;;;0.30;;
64938;SDS011;51453;47.738;7.420;2023-04-12T14:53:32;0.75;;;0.30;;
64938;SDS011;51453;47.738;7.420;2023-04-12T14:55:58;0.40;;;0.28;;
64938;SDS011;51453;47.738;7.420;2023-04-12T14:58:30;0.40;;;0.30;;
64938;SDS011;51453;47.738;7.420;2023-04-12T15:00:58;0.55;;;0.32;;
64938;SDS011;51453;47.738;7.420;2023-04-12T15:03:24;0.65;;;0.45;;
64938;SDS011;51453;47.738;7.420;2023-04-12T15:05:53;1.02;;;0.50;;
64938;SDS011;51453;47.738;7.420;2023-04-12T15:08:19;0.70;;;0.40;;
64938;SDS011;51453;47.738;7.420;2023-04-12T15:10:47;0.50;;;0.35;;
64938;SDS011;51453;47.738;7.420;2023-04-12T15:13:13;0.70;;;0.32;;
64938;SDS011;51453;47.738;7.420;2023-04-12T15:15:38;0.70;;;0.40;;